BEL515 EBBR-KIAD
Flight info
| Callsign | BEL515 |
|---|---|
| Flight time | N/A |
| Altitude | 38000 |
| Route | DENUT L610 LAM/N0408F220 L10 BPK/N0472F380 UN601 LESTA UP6 RODOL UL28 PENIL M144 BAGSO DCT NEBIN/M084F390 NATB BUDAR/N0478F400 N436B ALLEX DCT KAYCC DCT KYLOH DCT BAF HYPER9 |
| Aircraft | A359/H-SDE2E3GHIJ3J4J5LM1ORWXY/LB1D1 |
Departure
| Time | 2026-04-30 08:31 |
|---|---|
| Airport | Brussels Airport (EBBR) |
Arrival
| Time | N/A |
|---|---|
| Airport | Washington Dulles International Airport (KIAD) |
| Time | Latitude | Longitude | Altitude | Speed | Heading |
|---|---|---|---|---|---|
| 2026-04-30 08:03 | 50.89955 | 4.48793 | 137 ft | 0 kts | 335° |
| 2026-04-30 08:22 | 50.89941 | 4.48803 | 138 ft | 4 kts | 339° |
| 2026-04-30 08:22 | 50.89915 | 4.48816 | 140 ft | 4 kts | 347° |
| 2026-04-30 08:22 | 50.89888 | 4.48822 | 141 ft | 4 kts | 2° |
| 2026-04-30 08:23 | 50.89864 | 4.48814 | 142 ft | 4 kts | 38° |
| 2026-04-30 08:23 | 50.89855 | 4.48801 | 142 ft | 0 kts | 65° |
| 2026-04-30 08:24 | 50.89864 | 4.48828 | 142 ft | 8 kts | 65° |
| 2026-04-30 08:25 | 50.89893 | 4.48929 | 142 ft | 13 kts | 65° |
| 2026-04-30 08:25 | 50.89921 | 4.49026 | 142 ft | 1 kts | 65° |
| 2026-04-30 08:25 | 50.89932 | 4.49064 | 142 ft | 7 kts | 65° |
| 2026-04-30 08:25 | 50.89933 | 4.49168 | 143 ft | 12 kts | 122° |
| 2026-04-30 08:26 | 50.89852 | 4.49209 | 147 ft | 13 kts | 181° |
| 2026-04-30 08:26 | 50.89755 | 4.49181 | 152 ft | 15 kts | 190° |
| 2026-04-30 08:26 | 50.89647 | 4.49124 | 158 ft | 17 kts | 204° |
| 2026-04-30 08:26 | 50.89526 | 4.49051 | 163 ft | 20 kts | 196° |
| 2026-04-30 08:27 | 50.89387 | 4.48978 | 167 ft | 23 kts | 207° |
| 2026-04-30 08:27 | 50.89275 | 4.48786 | 169 ft | 23 kts | 246° |
| 2026-04-30 08:27 | 50.89263 | 4.48745 | 170 ft | 6 kts | 245° |
| 2026-04-30 08:27 | 50.89237 | 4.48647 | 170 ft | 13 kts | 249° |
| 2026-04-30 08:28 | 50.89197 | 4.48473 | 170 ft | 20 kts | 249° |
| 2026-04-30 08:28 | 50.89143 | 4.48241 | 170 ft | 25 kts | 250° |
| 2026-04-30 08:28 | 50.89101 | 4.48054 | 170 ft | 0 kts | 250° |
| 2026-04-30 08:28 | 50.89095 | 4.48029 | 170 ft | 6 kts | 250° |
| 2026-04-30 08:29 | 50.89061 | 4.47946 | 171 ft | 11 kts | 220° |
| 2026-04-30 08:29 | 50.88991 | 4.47927 | 178 ft | 9 kts | 166° |
| 2026-04-30 08:29 | 50.88940 | 4.48024 | 186 ft | 17 kts | 105° |
| 2026-04-30 08:29 | 50.88948 | 4.48232 | 198 ft | 19 kts | 72° |
| 2026-04-30 08:30 | 50.88952 | 4.48251 | 185 ft | 0 kts | 72° |
| 2026-04-30 08:30 | 50.88977 | 4.48371 | 187 ft | 41 kts | 71° |
| 2026-04-30 08:30 | 50.89155 | 4.49137 | 182 ft | 105 kts | 70° |
| 2026-04-30 08:30 | 50.89473 | 4.50512 | 196 ft | 158 kts | 71° |
| 2026-04-30 08:31 | 50.89863 | 4.52188 | 658 ft | 171 kts | 72° |
| 2026-04-30 08:31 | 50.90354 | 4.54103 | 921 ft | 205 kts | 64° |
| 2026-04-30 08:31 | 50.91154 | 4.56216 | 1174 ft | 242 kts | 56° |
| 2026-04-30 08:31 | 50.92285 | 4.58360 | 1677 ft | 265 kts | 46° |
| 2026-04-30 08:32 | 50.93739 | 4.60108 | 2702 ft | 261 kts | 26° |
| 2026-04-30 08:32 | 50.95543 | 4.60479 | 3651 ft | 271 kts | 355° |
| 2026-04-30 08:32 | 50.97272 | 4.59190 | 4416 ft | 283 kts | 321° |
| 2026-04-30 08:32 | 50.98353 | 4.56572 | 5173 ft | 289 kts | 287° |
| 2026-04-30 08:33 | 50.98430 | 4.53416 | 5909 ft | 288 kts | 255° |
| 2026-04-30 08:33 | 50.97990 | 4.50316 | 6589 ft | 295 kts | 258° |
| 2026-04-30 08:33 | 50.97904 | 4.47037 | 7351 ft | 299 kts | 275° |
| 2026-04-30 08:33 | 50.98270 | 4.43774 | 8184 ft | 301 kts | 285° |
| 2026-04-30 08:34 | 50.98923 | 4.40599 | 9021 ft | 304 kts | 292° |
| 2026-04-30 08:34 | 50.99747 | 4.37480 | 9769 ft | 308 kts | 296° |
| 2026-04-30 08:34 | 51.00673 | 4.34383 | 10505 ft | 313 kts | 298° |
| 2026-04-30 08:34 | 51.01666 | 4.31261 | 10912 ft | 330 kts | 300° |
| 2026-04-30 08:35 | 51.02762 | 4.27941 | 11253 ft | 349 kts | 300° |
| 2026-04-30 08:35 | 51.03933 | 4.24448 | 11606 ft | 366 kts | 300° |
| 2026-04-30 08:35 | 51.05150 | 4.20839 | 12210 ft | 374 kts | 300° |
| 2026-04-30 08:35 | 51.06389 | 4.17167 | 12928 ft | 377 kts | 300° |
| 2026-04-30 08:36 | 51.07635 | 4.13468 | 13652 ft | 381 kts | 300° |
| 2026-04-30 08:36 | 51.08893 | 4.09747 | 14385 ft | 383 kts | 300° |
| 2026-04-30 08:36 | 51.10159 | 4.05999 | 15074 ft | 387 kts | 300° |
| 2026-04-30 08:36 | 51.11436 | 4.02208 | 15726 ft | 390 kts | 300° |
| 2026-04-30 08:37 | 51.12725 | 3.98376 | 16375 ft | 393 kts | 300° |
| 2026-04-30 08:37 | 51.14008 | 3.94558 | 16958 ft | 397 kts | 300° |
| 2026-04-30 08:37 | 51.15315 | 3.90666 | 17611 ft | 400 kts | 300° |
| 2026-04-30 08:37 | 51.16631 | 3.86734 | 18240 ft | 403 kts | 300° |
| 2026-04-30 08:38 | 51.17958 | 3.82766 | 18859 ft | 406 kts | 300° |
| 2026-04-30 08:38 | 51.19294 | 3.78767 | 19474 ft | 410 kts | 300° |
| 2026-04-30 08:38 | 51.20639 | 3.74732 | 20102 ft | 413 kts | 300° |
| 2026-04-30 08:38 | 51.21972 | 3.70727 | 20734 ft | 415 kts | 300° |
| 2026-04-30 08:39 | 51.23268 | 3.66576 | 21309 ft | 420 kts | 294° |
| 2026-04-30 08:39 | 51.24202 | 3.62129 | 21882 ft | 425 kts | 287° |
| 2026-04-30 08:39 | 51.24920 | 3.57531 | 22441 ft | 428 kts | 283° |
| 2026-04-30 08:39 | 51.25530 | 3.52851 | 23013 ft | 431 kts | 282° |
| 2026-04-30 08:40 | 51.26094 | 3.48190 | 23555 ft | 434 kts | 282° |
| 2026-04-30 08:40 | 51.26665 | 3.43421 | 24080 ft | 438 kts | 282° |
| 2026-04-30 08:40 | 51.27254 | 3.38626 | 24566 ft | 441 kts | 282° |
| 2026-04-30 08:40 | 51.27861 | 3.33789 | 25046 ft | 445 kts | 282° |
| 2026-04-30 08:41 | 51.28477 | 3.28919 | 25513 ft | 449 kts | 282° |
| 2026-04-30 08:41 | 51.29102 | 3.23999 | 25964 ft | 453 kts | 282° |
| 2026-04-30 08:41 | 51.29724 | 3.19118 | 26402 ft | 456 kts | 282° |
| 2026-04-30 08:41 | 51.30359 | 3.14128 | 26842 ft | 460 kts | 282° |
| 2026-04-30 08:42 | 51.30998 | 3.09097 | 27270 ft | 464 kts | 282° |
| 2026-04-30 08:42 | 51.31639 | 3.04020 | 27683 ft | 467 kts | 282° |
| 2026-04-30 08:42 | 51.32283 | 2.98905 | 28092 ft | 470 kts | 282° |
| 2026-04-30 08:42 | 51.32931 | 2.93749 | 28492 ft | 473 kts | 282° |
| 2026-04-30 08:43 | 51.33571 | 2.88634 | 28887 ft | 476 kts | 282° |
| 2026-04-30 08:43 | 51.34223 | 2.83405 | 29262 ft | 479 kts | 282° |
| 2026-04-30 08:43 | 51.34874 | 2.78163 | 29639 ft | 482 kts | 282° |
| 2026-04-30 08:43 | 51.35528 | 2.72886 | 29989 ft | 485 kts | 282° |
| 2026-04-30 08:44 | 51.36188 | 2.67564 | 30326 ft | 488 kts | 282° |
| 2026-04-30 08:44 | 51.36846 | 2.62226 | 30700 ft | 490 kts | 281° |
| 2026-04-30 08:44 | 51.37503 | 2.56863 | 31087 ft | 492 kts | 281° |
| 2026-04-30 08:44 | 51.38161 | 2.51475 | 31408 ft | 494 kts | 281° |
| 2026-04-30 08:45 | 51.38817 | 2.46069 | 31729 ft | 496 kts | 281° |
| 2026-04-30 08:45 | 51.39468 | 2.40694 | 32048 ft | 498 kts | 281° |
| 2026-04-30 08:45 | 51.40124 | 2.35251 | 32376 ft | 499 kts | 281° |
| 2026-04-30 08:45 | 51.40781 | 2.29779 | 32655 ft | 501 kts | 281° |
| 2026-04-30 08:46 | 51.41441 | 2.24281 | 32940 ft | 503 kts | 281° |
| 2026-04-30 08:46 | 51.42111 | 2.18764 | 33224 ft | 504 kts | 281° |
| 2026-04-30 08:46 | 51.42785 | 2.13245 | 33499 ft | 506 kts | 281° |
| 2026-04-30 08:46 | 51.43233 | 2.09571 | 33653 ft | 507 kts | 281° |
| 2026-04-30 08:47 | 51.43910 | 2.04013 | 33893 ft | 509 kts | 281° |
| 2026-04-30 08:47 | 51.44587 | 1.98430 | 34115 ft | 510 kts | 281° |
| 2026-04-30 08:47 | 51.45259 | 1.92838 | 34379 ft | 511 kts | 280° |
| 2026-04-30 08:47 | 51.45918 | 1.87244 | 34676 ft | 510 kts | 280° |
| 2026-04-30 08:48 | 51.46571 | 1.81644 | 35005 ft | 509 kts | 280° |
| 2026-04-30 08:48 | 51.47213 | 1.76067 | 35319 ft | 508 kts | 280° |
| 2026-04-30 08:48 | 51.47843 | 1.70560 | 35582 ft | 508 kts | 280° |
| 2026-04-30 08:48 | 51.48479 | 1.64985 | 35865 ft | 506 kts | 280° |
| 2026-04-30 08:49 | 51.49113 | 1.59423 | 36144 ft | 506 kts | 280° |
| 2026-04-30 08:49 | 51.49750 | 1.53856 | 36365 ft | 506 kts | 280° |
| 2026-04-30 08:49 | 51.50379 | 1.48300 | 36569 ft | 506 kts | 280° |
| 2026-04-30 08:49 | 51.51004 | 1.42736 | 36803 ft | 505 kts | 280° |
| 2026-04-30 08:50 | 51.51616 | 1.37267 | 37123 ft | 502 kts | 280° |
| 2026-04-30 08:50 | 51.52232 | 1.31750 | 37471 ft | 499 kts | 280° |
| 2026-04-30 08:50 | 51.52837 | 1.26297 | 37761 ft | 496 kts | 280° |
| 2026-04-30 08:50 | 51.53441 | 1.20828 | 37964 ft | 495 kts | 280° |
| 2026-04-30 08:51 | 51.54040 | 1.15389 | 38170 ft | 494 kts | 280° |
| 2026-04-30 08:51 | 51.54643 | 1.09933 | 38277 ft | 495 kts | 280° |
| 2026-04-30 08:51 | 51.55245 | 1.04467 | 38290 ft | 496 kts | 279° |
| 2026-04-30 08:52 | 51.56422 | 0.93601 | 38288 ft | 496 kts | 279° |
| 2026-04-30 08:52 | 51.57596 | 0.82658 | 38294 ft | 496 kts | 279° |
| 2026-04-30 08:53 | 51.58761 | 0.71728 | 38294 ft | 496 kts | 279° |
| 2026-04-30 08:53 | 51.59916 | 0.60787 | 38294 ft | 496 kts | 279° |
| 2026-04-30 08:54 | 51.61056 | 0.49912 | 38294 ft | 495 kts | 279° |
| 2026-04-30 08:54 | 51.62185 | 0.38978 | 38283 ft | 494 kts | 278° |
| 2026-04-30 08:55 | 51.63303 | 0.28046 | 38283 ft | 494 kts | 278° |
| 2026-04-30 08:55 | 51.64729 | 0.17226 | 38274 ft | 495 kts | 288° |
| 2026-04-30 08:56 | 51.67750 | 0.07363 | 38273 ft | 494 kts | 301° |
| 2026-04-30 08:56 | 51.71441 | -0.02034 | 38272 ft | 495 kts | 303° |
| 2026-04-30 08:57 | 51.75852 | -0.10578 | 38275 ft | 498 kts | 319° |
| 2026-04-30 08:57 | 51.81504 | -0.16958 | 38275 ft | 499 kts | 329° |
| 2026-04-30 08:58 | 51.87489 | -0.22711 | 38265 ft | 500 kts | 330° |
| 2026-04-30 08:58 | 51.93507 | -0.28377 | 38270 ft | 500 kts | 330° |
| 2026-04-30 08:59 | 51.99523 | -0.34098 | 38274 ft | 500 kts | 330° |
| 2026-04-30 08:59 | 52.05482 | -0.39823 | 38284 ft | 501 kts | 330° |
| 2026-04-30 09:00 | 52.11479 | -0.45616 | 38283 ft | 501 kts | 330° |
| 2026-04-30 09:00 | 52.17477 | -0.51425 | 38295 ft | 501 kts | 330° |
| 2026-04-30 09:01 | 52.23444 | -0.57223 | 38291 ft | 501 kts | 330° |
| 2026-04-30 09:01 | 52.29430 | -0.63052 | 38294 ft | 501 kts | 330° |
| 2026-04-30 09:02 | 52.38387 | -0.71819 | 38286 ft | 501 kts | 330° |
| 2026-04-30 09:02 | 52.44372 | -0.77701 | 38284 ft | 501 kts | 330° |
| 2026-04-30 09:03 | 52.50353 | -0.83601 | 38285 ft | 501 kts | 330° |
| 2026-04-30 09:03 | 52.56296 | -0.89478 | 38283 ft | 501 kts | 329° |
| 2026-04-30 09:04 | 52.62274 | -0.95407 | 38284 ft | 502 kts | 329° |
| 2026-04-30 09:04 | 52.68258 | -1.01357 | 38295 ft | 502 kts | 329° |
| 2026-04-30 09:05 | 52.74114 | -1.07644 | 38294 ft | 502 kts | 320° |
| 2026-04-30 09:05 | 52.79320 | -1.15309 | 38294 ft | 501 kts | 316° |
| 2026-04-30 09:06 | 52.84354 | -1.23186 | 38294 ft | 501 kts | 315° |
| 2026-04-30 09:06 | 52.89394 | -1.31184 | 38294 ft | 501 kts | 315° |
| 2026-04-30 09:07 | 52.94435 | -1.39182 | 38284 ft | 501 kts | 315° |
| 2026-04-30 09:07 | 52.99479 | -1.47190 | 38275 ft | 501 kts | 315° |
| 2026-04-30 09:08 | 53.04488 | -1.55162 | 38264 ft | 501 kts | 315° |
| 2026-04-30 09:08 | 53.09529 | -1.63208 | 38249 ft | 501 kts | 315° |
| 2026-04-30 09:09 | 53.14560 | -1.71266 | 38245 ft | 501 kts | 315° |
| 2026-04-30 09:09 | 53.19547 | -1.79293 | 38227 ft | 501 kts | 315° |
| 2026-04-30 09:10 | 53.24101 | -1.88035 | 38248 ft | 498 kts | 301° |
| 2026-04-30 09:10 | 53.27450 | -1.98156 | 38260 ft | 497 kts | 295° |
| 2026-04-30 09:11 | 53.30515 | -2.08439 | 38274 ft | 497 kts | 294° |
| 2026-04-30 09:11 | 53.33557 | -2.18840 | 38295 ft | 497 kts | 294° |
| 2026-04-30 09:12 | 53.36274 | -2.29444 | 38296 ft | 494 kts | 287° |
| 2026-04-30 09:12 | 53.38433 | -2.40309 | 38294 ft | 494 kts | 285° |
| 2026-04-30 09:13 | 53.40518 | -2.51326 | 38285 ft | 494 kts | 285° |
| 2026-04-30 09:13 | 53.42581 | -2.62336 | 38280 ft | 494 kts | 285° |
| 2026-04-30 09:14 | 53.44624 | -2.73282 | 38275 ft | 494 kts | 285° |
| 2026-04-30 09:14 | 53.46681 | -2.84307 | 38268 ft | 494 kts | 285° |
| 2026-04-30 09:15 | 53.48735 | -2.95339 | 38267 ft | 495 kts | 285° |
| 2026-04-30 09:15 | 53.50777 | -3.06393 | 38265 ft | 495 kts | 284° |
| 2026-04-30 09:16 | 53.52798 | -3.17453 | 38266 ft | 495 kts | 284° |
| 2026-04-30 09:16 | 53.54799 | -3.28455 | 38266 ft | 495 kts | 284° |
| 2026-04-30 09:17 | 53.56805 | -3.39536 | 38268 ft | 494 kts | 284° |
| 2026-04-30 09:17 | 53.58803 | -3.50614 | 38256 ft | 494 kts | 284° |
| 2026-04-30 09:18 | 53.60767 | -3.61632 | 38256 ft | 494 kts | 283° |
| 2026-04-30 09:18 | 53.61867 | -3.72951 | 38256 ft | 488 kts | 272° |
| 2026-04-30 09:19 | 53.62407 | -3.84372 | 38249 ft | 488 kts | 270° |
| 2026-04-30 09:19 | 53.62847 | -3.95787 | 38248 ft | 488 kts | 270° |
| 2026-04-30 09:20 | 53.63279 | -4.07132 | 38246 ft | 488 kts | 270° |
| 2026-04-30 09:20 | 53.63712 | -4.18552 | 38241 ft | 488 kts | 270° |
| 2026-04-30 09:21 | 53.64140 | -4.29975 | 38233 ft | 488 kts | 270° |
| 2026-04-30 09:21 | 53.64564 | -4.41323 | 38219 ft | 487 kts | 270° |
| 2026-04-30 09:22 | 53.64973 | -4.52727 | 38221 ft | 487 kts | 270° |
| 2026-04-30 09:22 | 53.65365 | -4.64101 | 38225 ft | 487 kts | 270° |
| 2026-04-30 09:23 | 53.65749 | -4.75520 | 38218 ft | 488 kts | 270° |
| 2026-04-30 09:23 | 53.66129 | -4.86965 | 38220 ft | 488 kts | 270° |
| 2026-04-30 09:24 | 53.66499 | -4.98333 | 38218 ft | 488 kts | 270° |
| 2026-04-30 09:24 | 53.66857 | -5.09781 | 38216 ft | 488 kts | 269° |
| 2026-04-30 09:25 | 53.67209 | -5.21238 | 38226 ft | 488 kts | 269° |
| 2026-04-30 09:25 | 53.67535 | -5.32634 | 38219 ft | 488 kts | 269° |
| 2026-04-30 09:26 | 53.67848 | -5.44090 | 38217 ft | 488 kts | 269° |
| 2026-04-30 09:26 | 53.68150 | -5.55540 | 38217 ft | 487 kts | 269° |
| 2026-04-30 09:27 | 53.68375 | -5.66972 | 38211 ft | 487 kts | 268° |
| 2026-04-30 09:27 | 53.68568 | -5.78336 | 38207 ft | 487 kts | 268° |
| 2026-04-30 09:28 | 53.68763 | -5.89713 | 38204 ft | 487 kts | 268° |
| 2026-04-30 09:28 | 53.68957 | -6.01156 | 38194 ft | 487 kts | 268° |
| 2026-04-30 09:29 | 53.69138 | -6.12578 | 38192 ft | 487 kts | 268° |
| 2026-04-30 09:29 | 53.69308 | -6.24011 | 38193 ft | 487 kts | 268° |
| 2026-04-30 09:30 | 53.69468 | -6.35357 | 38186 ft | 487 kts | 268° |
| 2026-04-30 09:30 | 53.69618 | -6.46804 | 38182 ft | 486 kts | 268° |
| 2026-04-30 09:31 | 53.69757 | -6.58163 | 38193 ft | 486 kts | 268° |
| 2026-04-30 09:31 | 53.69885 | -6.69598 | 38189 ft | 487 kts | 267° |
| 2026-04-30 09:32 | 53.70001 | -6.81035 | 38174 ft | 487 kts | 267° |
| 2026-04-30 09:32 | 53.70108 | -6.92471 | 38174 ft | 487 kts | 267° |
| 2026-04-30 09:33 | 53.70204 | -7.03839 | 38174 ft | 487 kts | 267° |
| 2026-04-30 09:33 | 53.70289 | -7.15285 | 38174 ft | 487 kts | 267° |
| 2026-04-30 09:34 | 53.70363 | -7.26732 | 38168 ft | 487 kts | 267° |
| 2026-04-30 09:34 | 53.70426 | -7.38100 | 38163 ft | 487 kts | 267° |
| 2026-04-30 09:35 | 53.70476 | -7.49545 | 38162 ft | 487 kts | 266° |
| 2026-04-30 09:35 | 53.70512 | -7.59069 | 38170 ft | 487 kts | 266° |
| 2026-04-30 09:36 | 53.70541 | -7.72362 | 38160 ft | 485 kts | 266° |
| 2026-04-30 09:36 | 53.70552 | -7.81925 | 38165 ft | 486 kts | 266° |
| 2026-04-30 09:37 | 53.70569 | -7.93288 | 38166 ft | 486 kts | 266° |
| 2026-04-30 09:37 | 53.70575 | -8.04699 | 38165 ft | 486 kts | 266° |
| 2026-04-30 09:38 | 53.70565 | -8.16051 | 38142 ft | 486 kts | 266° |
| 2026-04-30 09:38 | 53.70543 | -8.27472 | 38142 ft | 486 kts | 266° |
| 2026-04-30 09:39 | 53.70510 | -8.38824 | 38130 ft | 486 kts | 266° |
| 2026-04-30 09:39 | 53.70465 | -8.50248 | 38129 ft | 486 kts | 266° |
| 2026-04-30 09:40 | 53.70410 | -8.61699 | 38129 ft | 487 kts | 265° |
| 2026-04-30 09:40 | 53.70343 | -8.73138 | 38134 ft | 487 kts | 265° |
| 2026-04-30 09:41 | 53.70266 | -8.84534 | 38132 ft | 488 kts | 265° |
| 2026-04-30 09:41 | 53.70179 | -8.96011 | 38128 ft | 488 kts | 265° |
| 2026-04-30 09:42 | 53.70080 | -9.07489 | 38127 ft | 489 kts | 265° |
| 2026-04-30 09:42 | 53.69971 | -9.18910 | 38128 ft | 489 kts | 265° |
| 2026-04-30 09:43 | 53.69850 | -9.30402 | 38127 ft | 489 kts | 265° |
| 2026-04-30 09:43 | 53.69720 | -9.41835 | 38119 ft | 489 kts | 265° |
| 2026-04-30 09:44 | 53.69576 | -9.53326 | 38121 ft | 489 kts | 265° |
| 2026-04-30 09:44 | 53.69423 | -9.64820 | 38127 ft | 489 kts | 264° |
| 2026-04-30 09:45 | 53.69260 | -9.76255 | 38126 ft | 489 kts | 264° |
| 2026-04-30 09:45 | 53.69083 | -9.87750 | 38119 ft | 489 kts | 264° |
| 2026-04-30 09:46 | 53.68896 | -9.99234 | 38119 ft | 489 kts | 264° |
| 2026-04-30 09:46 | 53.68700 | -10.10642 | 38118 ft | 489 kts | 264° |
| 2026-04-30 09:47 | 53.68490 | -10.22156 | 38119 ft | 489 kts | 264° |
| 2026-04-30 09:47 | 53.68271 | -10.33626 | 38119 ft | 489 kts | 264° |
| 2026-04-30 09:48 | 53.68041 | -10.45043 | 38109 ft | 489 kts | 264° |
| 2026-04-30 09:48 | 53.67800 | -10.56541 | 38109 ft | 490 kts | 264° |
| 2026-04-30 09:49 | 53.67545 | -10.68046 | 38112 ft | 490 kts | 264° |
| 2026-04-30 09:49 | 53.67284 | -10.79482 | 38109 ft | 491 kts | 264° |
| 2026-04-30 09:50 | 53.67006 | -10.91008 | 38108 ft | 491 kts | 264° |
| 2026-04-30 09:50 | 53.66719 | -11.02526 | 38113 ft | 491 kts | 264° |
| 2026-04-30 09:51 | 53.66425 | -11.13970 | 38108 ft | 491 kts | 264° |
| 2026-04-30 09:51 | 53.66117 | -11.25501 | 38110 ft | 491 kts | 264° |
| 2026-04-30 09:52 | 53.65798 | -11.37010 | 38108 ft | 491 kts | 264° |
| 2026-04-30 09:52 | 53.65469 | -11.48462 | 38101 ft | 491 kts | 264° |
| 2026-04-30 09:53 | 53.65129 | -11.59980 | 38101 ft | 491 kts | 264° |
| 2026-04-30 09:53 | 53.64776 | -11.71469 | 38102 ft | 490 kts | 263° |
| 2026-04-30 09:54 | 53.64414 | -11.82879 | 38102 ft | 490 kts | 263° |
| 2026-04-30 09:54 | 53.64039 | -11.94358 | 38100 ft | 490 kts | 263° |
| 2026-04-30 09:55 | 53.63655 | -12.05838 | 38098 ft | 490 kts | 263° |
| 2026-04-30 09:55 | 53.63262 | -12.17231 | 38102 ft | 490 kts | 263° |
| 2026-04-30 09:56 | 53.62855 | -12.28716 | 38098 ft | 490 kts | 263° |
| 2026-04-30 09:56 | 53.62440 | -12.40117 | 38102 ft | 490 kts | 263° |
| 2026-04-30 09:57 | 53.62010 | -12.51630 | 38100 ft | 491 kts | 263° |
| 2026-04-30 09:57 | 53.61570 | -12.63116 | 38102 ft | 491 kts | 263° |
| 2026-04-30 09:58 | 53.61122 | -12.74540 | 38100 ft | 492 kts | 263° |
| 2026-04-30 09:58 | 53.60658 | -12.86057 | 38098 ft | 492 kts | 263° |
| 2026-04-30 09:59 | 53.59699 | -13.09017 | 38095 ft | 493 kts | 263° |
| 2026-04-30 10:00 | 53.58949 | -13.26296 | 38088 ft | 493 kts | 263° |
| 2026-04-30 10:01 | 53.58179 | -13.43510 | 38093 ft | 493 kts | 263° |
| 2026-04-30 10:02 | 53.57374 | -13.60774 | 38093 ft | 492 kts | 262° |
| 2026-04-30 10:02 | 53.56830 | -13.72258 | 38091 ft | 492 kts | 262° |
| 2026-04-30 10:03 | 53.56274 | -13.83668 | 38089 ft | 491 kts | 262° |
| 2026-04-30 10:03 | 53.55711 | -13.95138 | 38089 ft | 492 kts | 262° |
| 2026-04-30 10:04 | 53.55129 | -14.06606 | 38091 ft | 491 kts | 262° |
| 2026-04-30 10:04 | 53.54539 | -14.18060 | 38091 ft | 491 kts | 262° |
| 2026-04-30 10:05 | 53.53940 | -14.29444 | 38090 ft | 492 kts | 262° |
| 2026-04-30 10:05 | 53.53332 | -14.40908 | 38092 ft | 492 kts | 262° |
| 2026-04-30 10:06 | 53.52711 | -14.52370 | 38088 ft | 492 kts | 262° |
| 2026-04-30 10:06 | 53.52080 | -14.63758 | 38125 ft | 492 kts | 262° |
| 2026-04-30 10:06 | 53.51760 | -14.69490 | 38286 ft | 492 kts | 262° |
| 2026-04-30 10:07 | 53.51438 | -14.75228 | 38489 ft | 492 kts | 262° |
| 2026-04-30 10:07 | 53.51114 | -14.80942 | 38658 ft | 492 kts | 262° |
| 2026-04-30 10:07 | 53.50785 | -14.86671 | 38822 ft | 492 kts | 262° |
| 2026-04-30 10:07 | 53.50453 | -14.92393 | 38981 ft | 491 kts | 262° |
| 2026-04-30 10:08 | 53.50151 | -14.98128 | 39083 ft | 493 kts | 265° |
| 2026-04-30 10:08 | 53.50180 | -15.09629 | 39083 ft | 496 kts | 270° |
| 2026-04-30 10:09 | 53.50400 | -15.21241 | 39082 ft | 495 kts | 270° |
| 2026-04-30 10:09 | 53.50637 | -15.32819 | 39082 ft | 495 kts | 270° |
| 2026-04-30 10:10 | 53.50852 | -15.44330 | 39083 ft | 495 kts | 270° |
| 2026-04-30 10:10 | 53.51046 | -15.55881 | 39082 ft | 494 kts | 270° |
| 2026-04-30 10:11 | 53.51227 | -15.67420 | 39082 ft | 493 kts | 270° |
| 2026-04-30 10:11 | 53.51396 | -15.78939 | 39082 ft | 493 kts | 270° |
| 2026-04-30 10:12 | 53.51552 | -15.90370 | 39082 ft | 492 kts | 270° |
| 2026-04-30 10:12 | 53.51701 | -16.01892 | 39082 ft | 492 kts | 269° |
| 2026-04-30 10:13 | 53.51838 | -16.13394 | 39082 ft | 491 kts | 269° |
| 2026-04-30 10:13 | 53.51963 | -16.24819 | 39072 ft | 491 kts | 269° |
| 2026-04-30 10:14 | 53.52078 | -16.36327 | 39072 ft | 491 kts | 269° |
| 2026-04-30 10:14 | 53.52228 | -16.53473 | 39075 ft | 491 kts | 269° |
| 2026-04-30 10:15 | 53.52315 | -16.64972 | 39076 ft | 492 kts | 269° |
| 2026-04-30 10:15 | 53.52389 | -16.76476 | 39072 ft | 492 kts | 269° |
| 2026-04-30 10:16 | 53.52455 | -16.87973 | 39076 ft | 491 kts | 269° |
| 2026-04-30 10:17 | 53.52532 | -17.05136 | 39074 ft | 491 kts | 269° |
| 2026-04-30 10:17 | 53.52586 | -17.22307 | 39072 ft | 490 kts | 269° |
| 2026-04-30 10:18 | 53.52607 | -17.33779 | 39075 ft | 489 kts | 269° |
| 2026-04-30 10:19 | 53.52617 | -17.50865 | 39072 ft | 488 kts | 269° |
| 2026-04-30 10:19 | 53.52610 | -17.62286 | 39064 ft | 488 kts | 269° |
| 2026-04-30 10:20 | 53.52592 | -17.73693 | 39063 ft | 487 kts | 269° |
| 2026-04-30 10:20 | 53.52547 | -17.90671 | 39063 ft | 486 kts | 269° |
| 2026-04-30 10:21 | 53.52504 | -18.02058 | 39063 ft | 485 kts | 269° |
| 2026-04-30 10:21 | 53.52449 | -18.13333 | 39063 ft | 485 kts | 269° |
| 2026-04-30 10:22 | 53.52383 | -18.24663 | 39063 ft | 484 kts | 269° |
| 2026-04-30 10:22 | 53.52308 | -18.35996 | 39064 ft | 484 kts | 269° |
| 2026-04-30 10:23 | 53.52221 | -18.47266 | 39063 ft | 484 kts | 269° |
| 2026-04-30 10:23 | 53.52123 | -18.58585 | 39063 ft | 484 kts | 269° |
| 2026-04-30 10:24 | 53.52015 | -18.69913 | 39063 ft | 484 kts | 269° |
| 2026-04-30 10:24 | 53.51896 | -18.81260 | 39058 ft | 484 kts | 269° |
| 2026-04-30 10:25 | 53.51767 | -18.92510 | 39054 ft | 484 kts | 269° |
| 2026-04-30 10:25 | 53.51628 | -19.03830 | 39054 ft | 484 kts | 269° |
| 2026-04-30 10:26 | 53.51479 | -19.15142 | 39055 ft | 483 kts | 269° |
| 2026-04-30 10:26 | 53.51320 | -19.26349 | 39054 ft | 482 kts | 268° |
| 2026-04-30 10:27 | 53.51146 | -19.37610 | 39054 ft | 481 kts | 268° |
| 2026-04-30 10:27 | 53.50966 | -19.48864 | 39055 ft | 481 kts | 268° |
| 2026-04-30 10:28 | 53.50776 | -19.60025 | 39054 ft | 480 kts | 268° |
| 2026-04-30 10:28 | 53.50573 | -19.71226 | 39054 ft | 479 kts | 268° |
| 2026-04-30 10:29 | 53.50397 | -19.80522 | 39054 ft | 478 kts | 268° |
| 2026-04-30 10:29 | 53.50140 | -19.93516 | 39055 ft | 478 kts | 268° |
| 2026-04-30 10:30 | 53.49940 | -20.02874 | 39046 ft | 477 kts | 267° |
| 2026-04-30 10:30 | 53.49370 | -20.13902 | 39045 ft | 476 kts | 264° |
| 2026-04-30 10:31 | 53.48632 | -20.24958 | 39045 ft | 476 kts | 263° |
| 2026-04-30 10:31 | 53.47925 | -20.36022 | 39000 ft | 476 kts | 264° |
| 2026-04-30 10:32 | 53.47255 | -20.47018 | 38979 ft | 476 kts | 264° |
| 2026-04-30 10:32 | 53.46584 | -20.58081 | 38971 ft | 476 kts | 264° |
| 2026-04-30 10:33 | 53.45905 | -20.69149 | 38972 ft | 476 kts | 264° |
| 2026-04-30 10:33 | 53.45217 | -20.80126 | 38971 ft | 476 kts | 264° |
| 2026-04-30 10:34 | 53.44513 | -20.91173 | 38971 ft | 476 kts | 264° |
| 2026-04-30 10:34 | 53.43797 | -21.02227 | 38971 ft | 475 kts | 264° |
| 2026-04-30 10:35 | 53.43081 | -21.13181 | 38970 ft | 474 kts | 264° |
| 2026-04-30 10:35 | 53.42350 | -21.24185 | 38970 ft | 474 kts | 264° |
| 2026-04-30 10:36 | 53.41609 | -21.35168 | 38971 ft | 473 kts | 263° |
| 2026-04-30 10:36 | 53.40859 | -21.46136 | 38971 ft | 473 kts | 263° |
| 2026-04-30 10:37 | 53.40104 | -21.57023 | 38968 ft | 472 kts | 263° |
| 2026-04-30 10:37 | 53.39335 | -21.67953 | 38962 ft | 472 kts | 263° |
| 2026-04-30 10:38 | 53.38556 | -21.78870 | 38963 ft | 471 kts | 263° |
| 2026-04-30 10:38 | 53.37774 | -21.89713 | 38962 ft | 471 kts | 263° |
| 2026-04-30 10:39 | 53.36979 | -22.00615 | 38961 ft | 471 kts | 263° |
| 2026-04-30 10:39 | 53.36175 | -22.11485 | 38961 ft | 470 kts | 263° |
| 2026-04-30 10:40 | 53.35369 | -22.22267 | 38961 ft | 469 kts | 263° |
| 2026-04-30 10:40 | 53.34545 | -22.33133 | 38961 ft | 469 kts | 263° |
| 2026-04-30 10:41 | 53.33708 | -22.43979 | 38961 ft | 469 kts | 263° |
| 2026-04-30 10:41 | 53.32871 | -22.54744 | 38962 ft | 469 kts | 263° |
| 2026-04-30 10:42 | 53.32020 | -22.65590 | 38952 ft | 469 kts | 263° |
| 2026-04-30 10:42 | 53.31162 | -22.76372 | 38943 ft | 469 kts | 263° |
| 2026-04-30 10:43 | 53.30292 | -22.87197 | 38946 ft | 469 kts | 263° |
| 2026-04-30 10:43 | 53.29408 | -22.98027 | 38941 ft | 470 kts | 262° |
| 2026-04-30 10:44 | 53.28514 | -23.08851 | 38947 ft | 470 kts | 262° |
| 2026-04-30 10:44 | 53.27617 | -23.19625 | 38943 ft | 470 kts | 262° |
| 2026-04-30 10:45 | 53.26705 | -23.30452 | 38932 ft | 470 kts | 262° |
| 2026-04-30 10:45 | 53.25786 | -23.41263 | 38933 ft | 469 kts | 262° |
| 2026-04-30 10:46 | 53.24855 | -23.52062 | 38936 ft | 469 kts | 262° |
| 2026-04-30 10:46 | 53.23915 | -23.62866 | 38934 ft | 470 kts | 262° |
| 2026-04-30 10:47 | 53.22969 | -23.73597 | 38935 ft | 470 kts | 262° |
| 2026-04-30 10:47 | 53.22006 | -23.84389 | 38935 ft | 469 kts | 262° |
| 2026-04-30 10:48 | 53.21036 | -23.95165 | 38934 ft | 469 kts | 262° |
| 2026-04-30 10:48 | 53.20065 | -24.05863 | 38934 ft | 469 kts | 262° |
| 2026-04-30 10:49 | 53.19080 | -24.16621 | 38915 ft | 469 kts | 262° |
| 2026-04-30 10:49 | 53.18081 | -24.27382 | 38918 ft | 469 kts | 262° |
| 2026-04-30 10:50 | 53.17079 | -24.38062 | 38915 ft | 469 kts | 262° |
| 2026-04-30 10:50 | 53.16061 | -24.48806 | 38914 ft | 469 kts | 262° |
| 2026-04-30 10:51 | 53.15038 | -24.59530 | 38913 ft | 469 kts | 262° |
| 2026-04-30 10:51 | 53.14003 | -24.70276 | 38907 ft | 469 kts | 262° |
| 2026-04-30 10:52 | 53.12962 | -24.80935 | 38905 ft | 469 kts | 261° |
| 2026-04-30 10:52 | 53.11905 | -24.91655 | 38905 ft | 469 kts | 261° |
| 2026-04-30 10:53 | 53.10839 | -25.02387 | 38907 ft | 469 kts | 261° |
| 2026-04-30 10:53 | 53.09770 | -25.13044 | 38905 ft | 469 kts | 261° |
| 2026-04-30 10:54 | 53.08682 | -25.23772 | 38879 ft | 469 kts | 261° |
| 2026-04-30 10:54 | 53.07587 | -25.34490 | 38822 ft | 469 kts | 261° |
| 2026-04-30 10:55 | 53.06491 | -25.45122 | 38824 ft | 468 kts | 261° |
| 2026-04-30 10:55 | 53.05379 | -25.55803 | 38822 ft | 468 kts | 261° |
| 2026-04-30 10:56 | 53.04266 | -25.66398 | 38822 ft | 468 kts | 261° |
| 2026-04-30 10:56 | 53.03136 | -25.77059 | 38816 ft | 468 kts | 261° |
| 2026-04-30 10:57 | 53.01994 | -25.87722 | 38813 ft | 468 kts | 261° |
| 2026-04-30 10:57 | 53.00852 | -25.98308 | 38813 ft | 468 kts | 261° |
| 2026-04-30 10:58 | 52.99693 | -26.08963 | 38814 ft | 468 kts | 261° |
| 2026-04-30 10:58 | 52.98524 | -26.19619 | 38813 ft | 468 kts | 261° |
| 2026-04-30 10:59 | 52.97352 | -26.30201 | 38814 ft | 468 kts | 261° |
| 2026-04-30 10:59 | 52.96163 | -26.40838 | 38814 ft | 469 kts | 261° |
| 2026-04-30 11:00 | 52.94964 | -26.51482 | 38813 ft | 469 kts | 261° |
| 2026-04-30 11:00 | 52.93756 | -26.62115 | 38813 ft | 469 kts | 261° |
| 2026-04-30 11:01 | 52.92542 | -26.72690 | 38814 ft | 470 kts | 261° |
| 2026-04-30 11:01 | 52.91313 | -26.83337 | 38814 ft | 470 kts | 261° |
| 2026-04-30 11:02 | 52.90074 | -26.93963 | 38823 ft | 470 kts | 261° |
| 2026-04-30 11:02 | 52.88826 | -27.04609 | 38822 ft | 470 kts | 261° |
| 2026-04-30 11:03 | 52.87576 | -27.15174 | 38823 ft | 470 kts | 261° |
| 2026-04-30 11:04 | 52.85668 | -27.31114 | 38823 ft | 470 kts | 260° |
| 2026-04-30 11:04 | 52.84396 | -27.41669 | 38823 ft | 470 kts | 260° |
| 2026-04-30 11:05 | 52.83103 | -27.52288 | 38821 ft | 470 kts | 260° |
| 2026-04-30 11:05 | 52.81801 | -27.62888 | 38823 ft | 470 kts | 260° |
| 2026-04-30 11:06 | 52.80489 | -27.73492 | 38823 ft | 470 kts | 260° |
| 2026-04-30 11:06 | 52.79176 | -27.84027 | 38822 ft | 470 kts | 260° |
| 2026-04-30 11:07 | 52.77846 | -27.94623 | 38822 ft | 471 kts | 260° |
| 2026-04-30 11:07 | 52.76503 | -28.05237 | 38822 ft | 471 kts | 260° |
| 2026-04-30 11:08 | 52.75159 | -28.15770 | 38823 ft | 472 kts | 260° |
| 2026-04-30 11:08 | 52.73795 | -28.26369 | 38823 ft | 472 kts | 260° |
| 2026-04-30 11:09 | 52.72419 | -28.36981 | 38824 ft | 472 kts | 260° |
| 2026-04-30 11:09 | 52.71047 | -28.47506 | 38822 ft | 472 kts | 260° |
| 2026-04-30 11:10 | 52.69654 | -28.58100 | 38822 ft | 472 kts | 259° |
| 2026-04-30 11:10 | 52.68262 | -28.68609 | 38822 ft | 472 kts | 259° |
| 2026-04-30 11:11 | 52.66853 | -28.79181 | 38822 ft | 472 kts | 259° |
| 2026-04-30 11:11 | 52.65432 | -28.89768 | 38822 ft | 473 kts | 259° |
| 2026-04-30 11:12 | 52.64001 | -29.00344 | 38823 ft | 473 kts | 259° |
| 2026-04-30 11:12 | 52.62564 | -29.10877 | 38824 ft | 473 kts | 259° |
| 2026-04-30 11:13 | 52.61111 | -29.21467 | 38823 ft | 473 kts | 259° |
| 2026-04-30 11:13 | 52.59659 | -29.31987 | 38823 ft | 474 kts | 259° |
| 2026-04-30 11:14 | 52.58181 | -29.42570 | 38822 ft | 474 kts | 259° |
| 2026-04-30 11:14 | 52.56696 | -29.53160 | 38822 ft | 474 kts | 259° |
| 2026-04-30 11:15 | 52.55214 | -29.63666 | 38823 ft | 475 kts | 258° |
| 2026-04-30 11:15 | 52.53714 | -29.74232 | 38823 ft | 475 kts | 258° |
| 2026-04-30 11:16 | 52.52197 | -29.84820 | 38824 ft | 475 kts | 258° |
| 2026-04-30 11:16 | 52.50680 | -29.95331 | 38822 ft | 476 kts | 258° |
| 2026-04-30 11:17 | 52.49673 | -30.06044 | 38822 ft | 474 kts | 265° |
| 2026-04-30 11:17 | 52.49016 | -30.16835 | 38823 ft | 474 kts | 266° |
| 2026-04-30 11:18 | 52.48413 | -30.27546 | 38831 ft | 474 kts | 266° |
| 2026-04-30 11:18 | 52.47475 | -30.43730 | 38832 ft | 475 kts | 266° |
| 2026-04-30 11:19 | 52.46824 | -30.54519 | 38832 ft | 474 kts | 266° |
| 2026-04-30 11:19 | 52.46168 | -30.65241 | 38832 ft | 475 kts | 266° |
| 2026-04-30 11:20 | 52.45497 | -30.76031 | 38832 ft | 475 kts | 266° |
| 2026-04-30 11:20 | 52.44817 | -30.86814 | 38832 ft | 475 kts | 266° |
| 2026-04-30 11:21 | 52.44130 | -30.97544 | 38832 ft | 476 kts | 266° |
| 2026-04-30 11:21 | 52.43429 | -31.08349 | 38832 ft | 476 kts | 265° |
| 2026-04-30 11:22 | 52.42722 | -31.19084 | 38851 ft | 476 kts | 265° |
| 2026-04-30 11:22 | 52.42001 | -31.29914 | 38940 ft | 477 kts | 265° |
| 2026-04-30 11:23 | 52.41272 | -31.40673 | 38930 ft | 477 kts | 265° |
| 2026-04-30 11:24 | 52.40282 | -31.55081 | 38946 ft | 478 kts | 265° |
| 2026-04-30 11:24 | 52.39525 | -31.65921 | 38943 ft | 479 kts | 265° |
| 2026-04-30 11:25 | 52.38370 | -31.82143 | 38948 ft | 480 kts | 265° |
| 2026-04-30 11:26 | 52.36796 | -32.03867 | 38943 ft | 480 kts | 264° |
| 2026-04-30 11:26 | 52.35999 | -32.14657 | 38943 ft | 481 kts | 264° |
| 2026-04-30 11:27 | 52.35184 | -32.25527 | 38941 ft | 481 kts | 264° |
| 2026-04-30 11:27 | 52.34355 | -32.36402 | 38943 ft | 481 kts | 264° |
| 2026-04-30 11:28 | 52.33097 | -32.52676 | 38941 ft | 481 kts | 264° |
| 2026-04-30 11:29 | 52.32252 | -32.63486 | 38953 ft | 481 kts | 264° |
| 2026-04-30 11:29 | 52.30959 | -32.79749 | 38952 ft | 480 kts | 264° |
| 2026-04-30 11:30 | 52.29646 | -32.95946 | 38954 ft | 481 kts | 264° |
| 2026-04-30 11:31 | 52.28756 | -33.06781 | 38952 ft | 481 kts | 264° |
| 2026-04-30 11:31 | 52.27855 | -33.17634 | 38953 ft | 482 kts | 264° |
| 2026-04-30 11:32 | 52.26949 | -33.28422 | 38953 ft | 483 kts | 264° |
| 2026-04-30 11:32 | 52.26025 | -33.39299 | 38952 ft | 483 kts | 264° |
| 2026-04-30 11:33 | 52.24623 | -33.55574 | 38961 ft | 484 kts | 264° |
| 2026-04-30 11:33 | 52.23672 | -33.66464 | 38961 ft | 485 kts | 264° |
| 2026-04-30 11:34 | 52.22714 | -33.77306 | 38962 ft | 485 kts | 264° |
| 2026-04-30 11:34 | 52.21738 | -33.88236 | 38962 ft | 486 kts | 264° |
| 2026-04-30 11:35 | 52.20754 | -33.99148 | 38962 ft | 486 kts | 264° |
| 2026-04-30 11:35 | 52.19765 | -34.09981 | 38962 ft | 486 kts | 264° |
| 2026-04-30 11:36 | 52.18760 | -34.20905 | 38961 ft | 486 kts | 264° |
| 2026-04-30 11:36 | 52.17749 | -34.31772 | 38962 ft | 486 kts | 264° |
| 2026-04-30 11:37 | 52.16722 | -34.42664 | 38970 ft | 486 kts | 264° |
| 2026-04-30 11:37 | 52.15688 | -34.53551 | 38972 ft | 486 kts | 264° |
| 2026-04-30 11:38 | 52.14646 | -34.64419 | 38971 ft | 486 kts | 263° |
| 2026-04-30 11:38 | 52.13590 | -34.75302 | 38971 ft | 486 kts | 264° |
| 2026-04-30 11:39 | 52.12529 | -34.86101 | 38972 ft | 486 kts | 263° |
| 2026-04-30 11:39 | 52.11454 | -34.96979 | 38972 ft | 486 kts | 263° |
| 2026-04-30 11:40 | 52.10369 | -35.07865 | 38970 ft | 486 kts | 263° |
| 2026-04-30 11:40 | 52.09281 | -35.18681 | 38979 ft | 487 kts | 263° |
| 2026-04-30 11:41 | 52.08171 | -35.29564 | 38981 ft | 488 kts | 263° |
| 2026-04-30 11:41 | 52.07052 | -35.40453 | 39020 ft | 489 kts | 263° |
| 2026-04-30 11:42 | 52.05920 | -35.51369 | 39019 ft | 489 kts | 263° |
| 2026-04-30 11:42 | 52.04785 | -35.62219 | 39020 ft | 490 kts | 263° |
| 2026-04-30 11:43 | 52.03629 | -35.73161 | 39024 ft | 491 kts | 263° |
| 2026-04-30 11:43 | 52.02460 | -35.84109 | 39016 ft | 491 kts | 263° |
| 2026-04-30 11:44 | 52.01291 | -35.94972 | 39015 ft | 492 kts | 263° |
| 2026-04-30 11:44 | 52.00104 | -36.05910 | 39028 ft | 492 kts | 263° |
| 2026-04-30 11:45 | 51.98901 | -36.16872 | 39027 ft | 492 kts | 263° |
| 2026-04-30 11:45 | 51.97690 | -36.27800 | 39026 ft | 492 kts | 263° |
| 2026-04-30 11:46 | 51.96478 | -36.38656 | 39027 ft | 492 kts | 262° |
| 2026-04-30 11:46 | 51.95250 | -36.49569 | 39026 ft | 492 kts | 262° |
| 2026-04-30 11:47 | 51.94009 | -36.60500 | 39026 ft | 492 kts | 262° |
| 2026-04-30 11:47 | 51.92767 | -36.71334 | 39027 ft | 492 kts | 262° |
| 2026-04-30 11:48 | 51.91507 | -36.82250 | 39031 ft | 493 kts | 262° |
| 2026-04-30 11:48 | 51.90233 | -36.93182 | 39037 ft | 493 kts | 262° |
| 2026-04-30 11:49 | 51.88956 | -37.04054 | 39036 ft | 493 kts | 261° |
| 2026-04-30 11:49 | 51.87666 | -37.14955 | 39035 ft | 494 kts | 261° |
| 2026-04-30 11:50 | 51.86360 | -37.25884 | 39020 ft | 494 kts | 261° |
| 2026-04-30 11:50 | 51.85044 | -37.36814 | 39024 ft | 494 kts | 261° |
| 2026-04-30 11:51 | 51.83717 | -37.47727 | 39008 ft | 495 kts | 261° |
| 2026-04-30 11:51 | 51.82385 | -37.58578 | 39027 ft | 495 kts | 261° |
| 2026-04-30 11:52 | 51.81037 | -37.69498 | 39027 ft | 495 kts | 261° |
| 2026-04-30 11:52 | 51.79677 | -37.80429 | 39027 ft | 495 kts | 261° |
| 2026-04-30 11:53 | 51.78307 | -37.91346 | 39026 ft | 495 kts | 261° |
| 2026-04-30 11:53 | 51.76935 | -38.02203 | 39026 ft | 496 kts | 261° |
| 2026-04-30 11:54 | 51.75544 | -38.13121 | 39012 ft | 496 kts | 261° |
| 2026-04-30 11:54 | 51.74153 | -38.23966 | 39027 ft | 496 kts | 261° |
| 2026-04-30 11:55 | 51.72742 | -38.34865 | 39037 ft | 496 kts | 260° |
| 2026-04-30 11:55 | 51.71321 | -38.45736 | 39036 ft | 496 kts | 260° |
| 2026-04-30 11:56 | 51.69887 | -38.56627 | 39036 ft | 496 kts | 260° |
| 2026-04-30 11:56 | 51.68444 | -38.67514 | 39036 ft | 496 kts | 260° |
| 2026-04-30 11:57 | 51.67001 | -38.78328 | 39036 ft | 496 kts | 259° |
| 2026-04-30 11:57 | 51.65544 | -38.89187 | 39036 ft | 496 kts | 259° |
| 2026-04-30 11:58 | 51.64066 | -39.00077 | 39045 ft | 496 kts | 259° |
| 2026-04-30 11:58 | 51.62590 | -39.10871 | 39045 ft | 496 kts | 259° |
| 2026-04-30 11:59 | 51.61098 | -39.21729 | 39045 ft | 496 kts | 259° |
| 2026-04-30 11:59 | 51.59605 | -39.32510 | 39045 ft | 496 kts | 259° |
| 2026-04-30 12:00 | 51.58093 | -39.43339 | 39045 ft | 496 kts | 259° |
| 2026-04-30 12:00 | 51.56570 | -39.54169 | 39052 ft | 496 kts | 259° |
| 2026-04-30 12:01 | 51.55035 | -39.65001 | 39054 ft | 496 kts | 259° |
| 2026-04-30 12:01 | 51.53503 | -39.75751 | 39054 ft | 496 kts | 259° |
| 2026-04-30 12:02 | 51.51953 | -39.86564 | 39054 ft | 496 kts | 258° |
| 2026-04-30 12:02 | 51.50402 | -39.97373 | 39051 ft | 495 kts | 260° |
| 2026-04-30 12:03 | 51.49199 | -40.13719 | 39043 ft | 493 kts | 266° |
| 2026-04-30 12:04 | 51.48581 | -40.24679 | 39071 ft | 491 kts | 265° |
| 2026-04-30 12:04 | 51.47960 | -40.35579 | 39072 ft | 490 kts | 265° |
| 2026-04-30 12:05 | 51.47325 | -40.46404 | 39072 ft | 490 kts | 265° |
| 2026-04-30 12:05 | 51.46670 | -40.57297 | 39072 ft | 490 kts | 265° |
| 2026-04-30 12:06 | 51.46001 | -40.68191 | 39072 ft | 490 kts | 265° |
| 2026-04-30 12:06 | 51.45329 | -40.79015 | 39079 ft | 490 kts | 265° |
| 2026-04-30 12:07 | 51.44644 | -40.89923 | 39082 ft | 490 kts | 265° |
| 2026-04-30 12:07 | 51.43952 | -41.00736 | 39082 ft | 490 kts | 264° |
| 2026-04-30 12:08 | 51.43246 | -41.11601 | 39082 ft | 490 kts | 264° |
| 2026-04-30 12:08 | 51.42527 | -41.22501 | 39082 ft | 490 kts | 264° |
| 2026-04-30 12:09 | 51.41807 | -41.33303 | 39089 ft | 490 kts | 264° |
| 2026-04-30 12:09 | 51.41070 | -41.44171 | 39091 ft | 489 kts | 264° |
| 2026-04-30 12:10 | 51.40327 | -41.55000 | 39091 ft | 489 kts | 264° |
| 2026-04-30 12:10 | 51.39575 | -41.65813 | 39091 ft | 488 kts | 264° |
| 2026-04-30 12:11 | 51.38809 | -41.76632 | 39091 ft | 488 kts | 264° |
| 2026-04-30 12:11 | 51.38041 | -41.87363 | 39100 ft | 487 kts | 264° |
| 2026-04-30 12:12 | 51.37259 | -41.98147 | 39101 ft | 487 kts | 264° |
| 2026-04-30 12:12 | 51.36465 | -42.08925 | 39100 ft | 487 kts | 263° |
| 2026-04-30 12:13 | 51.35669 | -42.19638 | 39100 ft | 487 kts | 263° |
| 2026-04-30 12:13 | 51.34858 | -42.30419 | 39102 ft | 487 kts | 263° |
| 2026-04-30 12:14 | 51.34042 | -42.41112 | 39110 ft | 487 kts | 263° |
| 2026-04-30 12:14 | 51.33210 | -42.51890 | 39110 ft | 488 kts | 263° |
| 2026-04-30 12:15 | 51.32511 | -42.60845 | 39110 ft | 488 kts | 263° |
| 2026-04-30 12:15 | 51.31660 | -42.71619 | 39109 ft | 488 kts | 263° |
| 2026-04-30 12:16 | 51.30801 | -42.82362 | 39118 ft | 489 kts | 263° |
| 2026-04-30 12:16 | 51.29931 | -42.93142 | 39119 ft | 489 kts | 263° |
| 2026-04-30 12:17 | 51.28604 | -43.09332 | 39119 ft | 489 kts | 263° |
| 2026-04-30 12:17 | 51.27708 | -43.20118 | 39119 ft | 489 kts | 263° |
| 2026-04-30 12:18 | 51.26808 | -43.30810 | 39128 ft | 488 kts | 262° |
| 2026-04-30 12:18 | 51.25893 | -43.41565 | 39128 ft | 488 kts | 262° |
| 2026-04-30 12:19 | 51.24968 | -43.52314 | 39135 ft | 487 kts | 262° |
| 2026-04-30 12:19 | 51.24042 | -43.62960 | 39137 ft | 487 kts | 262° |
| 2026-04-30 12:20 | 51.23101 | -43.73672 | 39135 ft | 487 kts | 262° |
| 2026-04-30 12:20 | 51.22149 | -43.84379 | 39136 ft | 486 kts | 262° |
| 2026-04-30 12:21 | 51.21194 | -43.94994 | 39149 ft | 486 kts | 262° |
| 2026-04-30 12:21 | 51.20224 | -44.05678 | 39150 ft | 485 kts | 262° |
| 2026-04-30 12:22 | 51.19248 | -44.16315 | 39146 ft | 484 kts | 262° |
| 2026-04-30 12:22 | 51.18262 | -44.26958 | 39150 ft | 485 kts | 261° |
| 2026-04-30 12:23 | 51.17271 | -44.37550 | 39158 ft | 485 kts | 261° |
| 2026-04-30 12:23 | 51.16263 | -44.48215 | 39158 ft | 485 kts | 261° |
| 2026-04-30 12:24 | 51.15247 | -44.58849 | 39156 ft | 485 kts | 261° |
| 2026-04-30 12:24 | 51.14228 | -44.69429 | 39162 ft | 486 kts | 261° |
| 2026-04-30 12:25 | 51.13191 | -44.80080 | 39165 ft | 486 kts | 261° |
| 2026-04-30 12:25 | 51.12143 | -44.90733 | 39165 ft | 486 kts | 261° |
| 2026-04-30 12:26 | 51.11040 | -45.01362 | 39165 ft | 486 kts | 258° |
| 2026-04-30 12:26 | 51.09878 | -45.11966 | 39171 ft | 486 kts | 258° |
| 2026-04-30 12:27 | 51.08781 | -45.22518 | 39175 ft | 486 kts | 261° |
| 2026-04-30 12:27 | 51.07788 | -45.33190 | 39174 ft | 486 kts | 261° |
| 2026-04-30 12:28 | 51.06768 | -45.43746 | 39174 ft | 486 kts | 261° |
| 2026-04-30 12:28 | 51.05681 | -45.54352 | 39226 ft | 486 kts | 260° |
| 2026-04-30 12:29 | 51.04564 | -45.64962 | 39230 ft | 485 kts | 260° |
| 2026-04-30 12:29 | 51.03436 | -45.75563 | 39229 ft | 485 kts | 260° |
| 2026-04-30 12:30 | 51.02309 | -45.86087 | 39230 ft | 485 kts | 260° |
| 2026-04-30 12:30 | 51.01169 | -45.96657 | 39228 ft | 486 kts | 259° |
| 2026-04-30 12:31 | 51.00019 | -46.07237 | 39235 ft | 486 kts | 259° |
| 2026-04-30 12:31 | 50.98860 | -46.17788 | 39238 ft | 484 kts | 259° |
| 2026-04-30 12:32 | 50.97699 | -46.28263 | 39240 ft | 484 kts | 259° |
| 2026-04-30 12:32 | 50.96524 | -46.38787 | 39238 ft | 484 kts | 259° |
| 2026-04-30 12:33 | 50.95337 | -46.49326 | 39236 ft | 484 kts | 259° |
| 2026-04-30 12:33 | 50.94150 | -46.59779 | 39238 ft | 484 kts | 259° |
| 2026-04-30 12:34 | 50.92945 | -46.70292 | 39239 ft | 483 kts | 259° |
| 2026-04-30 12:34 | 50.91741 | -46.80716 | 39247 ft | 483 kts | 258° |
| 2026-04-30 12:35 | 50.90520 | -46.91198 | 39248 ft | 482 kts | 258° |
| 2026-04-30 12:35 | 50.89292 | -47.01657 | 39248 ft | 482 kts | 258° |
| 2026-04-30 12:36 | 50.88063 | -47.12033 | 39248 ft | 482 kts | 258° |
| 2026-04-30 12:36 | 50.86816 | -47.22478 | 39248 ft | 482 kts | 258° |
| 2026-04-30 12:37 | 50.85564 | -47.32889 | 39248 ft | 481 kts | 258° |
| 2026-04-30 12:37 | 50.84301 | -47.43298 | 39248 ft | 481 kts | 258° |
| 2026-04-30 12:38 | 50.83039 | -47.53639 | 39250 ft | 481 kts | 258° |
| 2026-04-30 12:38 | 50.81759 | -47.64034 | 39255 ft | 481 kts | 258° |
| 2026-04-30 12:39 | 50.80476 | -47.74387 | 39255 ft | 481 kts | 257° |
| 2026-04-30 12:39 | 50.79174 | -47.84792 | 39256 ft | 481 kts | 257° |
| 2026-04-30 12:40 | 50.77873 | -47.95114 | 39255 ft | 482 kts | 257° |
| 2026-04-30 12:40 | 50.76554 | -48.05503 | 39260 ft | 482 kts | 257° |
| 2026-04-30 12:41 | 50.75228 | -48.15869 | 39256 ft | 480 kts | 257° |
| 2026-04-30 12:41 | 50.73896 | -48.26196 | 39255 ft | 479 kts | 257° |
| 2026-04-30 12:42 | 50.72564 | -48.36446 | 39261 ft | 479 kts | 257° |
| 2026-04-30 12:42 | 50.71218 | -48.46744 | 39267 ft | 479 kts | 257° |
| 2026-04-30 12:43 | 50.69862 | -48.57043 | 39265 ft | 478 kts | 256° |
| 2026-04-30 12:43 | 50.68507 | -48.67258 | 39261 ft | 478 kts | 256° |
| 2026-04-30 12:44 | 50.67136 | -48.77518 | 39268 ft | 477 kts | 256° |
| 2026-04-30 12:44 | 50.65758 | -48.87749 | 39269 ft | 476 kts | 256° |
| 2026-04-30 12:45 | 50.64369 | -48.97970 | 39267 ft | 476 kts | 256° |
| 2026-04-30 12:45 | 50.62990 | -49.08093 | 39270 ft | 475 kts | 256° |
| 2026-04-30 12:46 | 50.61591 | -49.18275 | 39265 ft | 475 kts | 256° |
| 2026-04-30 12:46 | 50.60182 | -49.28453 | 39281 ft | 475 kts | 256° |
| 2026-04-30 12:47 | 50.58775 | -49.38547 | 39280 ft | 474 kts | 255° |
| 2026-04-30 12:47 | 50.57348 | -49.48697 | 39280 ft | 475 kts | 255° |
| 2026-04-30 12:48 | 50.55917 | -49.58836 | 39280 ft | 474 kts | 255° |
| 2026-04-30 12:48 | 50.54485 | -49.68910 | 39270 ft | 474 kts | 255° |
| 2026-04-30 12:49 | 50.53035 | -49.79035 | 39277 ft | 474 kts | 255° |
| 2026-04-30 12:49 | 50.51577 | -49.89162 | 39270 ft | 474 kts | 255° |
| 2026-04-30 12:50 | 50.50041 | -49.99264 | 39272 ft | 474 kts | 250° |
| 2026-04-30 12:50 | 50.47880 | -50.08964 | 39279 ft | 472 kts | 247° |
| 2026-04-30 12:51 | 50.45567 | -50.18614 | 39278 ft | 471 kts | 247° |
| 2026-04-30 12:51 | 50.43239 | -50.28173 | 39295 ft | 471 kts | 247° |
| 2026-04-30 12:52 | 50.40899 | -50.37780 | 39293 ft | 471 kts | 247° |
| 2026-04-30 12:52 | 50.38560 | -50.47381 | 39295 ft | 470 kts | 246° |
| 2026-04-30 12:53 | 50.36233 | -50.56893 | 39292 ft | 470 kts | 246° |
| 2026-04-30 12:53 | 50.33884 | -50.66452 | 39294 ft | 469 kts | 246° |
| 2026-04-30 12:54 | 50.31549 | -50.75912 | 39293 ft | 468 kts | 246° |
| 2026-04-30 12:54 | 50.29194 | -50.85419 | 39301 ft | 467 kts | 246° |
| 2026-04-30 12:55 | 50.26839 | -50.94886 | 39303 ft | 467 kts | 246° |
| 2026-04-30 12:55 | 50.24478 | -51.04333 | 39302 ft | 466 kts | 246° |
| 2026-04-30 12:56 | 50.22126 | -51.13708 | 39302 ft | 466 kts | 246° |
| 2026-04-30 12:56 | 50.19757 | -51.23115 | 39303 ft | 465 kts | 246° |
| 2026-04-30 12:57 | 50.17378 | -51.32509 | 39303 ft | 465 kts | 245° |
| 2026-04-30 12:57 | 50.15007 | -51.41831 | 39302 ft | 465 kts | 245° |
| 2026-04-30 12:58 | 50.12618 | -51.51195 | 39304 ft | 465 kts | 245° |
| 2026-04-30 12:58 | 50.10220 | -51.60553 | 39303 ft | 465 kts | 245° |
| 2026-04-30 12:59 | 50.07809 | -51.69919 | 39302 ft | 465 kts | 245° |
| 2026-04-30 12:59 | 50.05392 | -51.79269 | 39302 ft | 465 kts | 245° |
| 2026-04-30 13:00 | 50.02984 | -51.88550 | 39302 ft | 465 kts | 245° |
| 2026-04-30 13:00 | 50.00554 | -51.97888 | 39304 ft | 465 kts | 245° |
| 2026-04-30 13:01 | 49.98085 | -52.07193 | 39301 ft | 465 kts | 244° |
| 2026-04-30 13:01 | 49.95544 | -52.16363 | 39304 ft | 465 kts | 244° |
| 2026-04-30 13:02 | 49.92975 | -52.25577 | 39302 ft | 465 kts | 244° |
| 2026-04-30 13:02 | 49.90411 | -52.34802 | 39312 ft | 465 kts | 244° |
| 2026-04-30 13:03 | 49.87864 | -52.43961 | 39312 ft | 465 kts | 244° |
| 2026-04-30 13:03 | 49.85296 | -52.53161 | 39312 ft | 465 kts | 244° |
| 2026-04-30 13:04 | 49.82720 | -52.62353 | 39296 ft | 465 kts | 244° |
| 2026-04-30 13:04 | 49.80135 | -52.71534 | 39294 ft | 464 kts | 244° |
| 2026-04-30 13:05 | 49.77561 | -52.80653 | 39310 ft | 464 kts | 244° |
| 2026-04-30 13:06 | 49.73665 | -52.94392 | 39311 ft | 464 kts | 244° |
| 2026-04-30 13:06 | 49.71059 | -53.03529 | 39312 ft | 464 kts | 244° |
| 2026-04-30 13:07 | 49.68463 | -53.12594 | 39313 ft | 463 kts | 244° |
| 2026-04-30 13:07 | 49.65850 | -53.21686 | 39312 ft | 463 kts | 244° |
| 2026-04-30 13:08 | 49.63231 | -53.30763 | 39312 ft | 462 kts | 244° |
| 2026-04-30 13:08 | 49.61053 | -53.38289 | 39311 ft | 462 kts | 244° |
| 2026-04-30 13:09 | 49.57993 | -53.48824 | 39313 ft | 462 kts | 244° |
| 2026-04-30 13:09 | 49.55807 | -53.56325 | 39312 ft | 461 kts | 244° |
| 2026-04-30 13:10 | 49.52737 | -53.66809 | 39313 ft | 461 kts | 244° |
| 2026-04-30 13:10 | 49.50522 | -53.74346 | 39311 ft | 461 kts | 244° |
| 2026-04-30 13:11 | 49.47888 | -53.83280 | 39313 ft | 461 kts | 244° |
| 2026-04-30 13:11 | 49.45233 | -53.92256 | 39312 ft | 460 kts | 244° |
| 2026-04-30 13:12 | 49.42571 | -54.01222 | 39312 ft | 460 kts | 244° |
| 2026-04-30 13:12 | 49.39919 | -54.10103 | 39313 ft | 460 kts | 244° |
| 2026-04-30 13:13 | 49.35904 | -54.23514 | 39313 ft | 460 kts | 244° |
| 2026-04-30 13:14 | 49.31877 | -54.36895 | 39311 ft | 460 kts | 244° |
| 2026-04-30 13:14 | 49.27842 | -54.50219 | 39313 ft | 461 kts | 244° |
| 2026-04-30 13:15 | 49.23775 | -54.63589 | 39312 ft | 462 kts | 244° |
| 2026-04-30 13:16 | 49.21051 | -54.72501 | 39311 ft | 462 kts | 244° |
| 2026-04-30 13:16 | 49.18319 | -54.81400 | 39311 ft | 462 kts | 244° |
| 2026-04-30 13:17 | 49.14220 | -54.94693 | 39313 ft | 463 kts | 244° |
| 2026-04-30 13:18 | 49.10080 | -55.08047 | 39315 ft | 463 kts | 244° |
| 2026-04-30 13:18 | 49.05947 | -55.21325 | 39323 ft | 464 kts | 244° |
| 2026-04-30 13:19 | 49.03166 | -55.30211 | 39322 ft | 464 kts | 244° |
| 2026-04-30 13:19 | 49.00376 | -55.39089 | 39312 ft | 464 kts | 244° |
| 2026-04-30 13:20 | 48.97579 | -55.47957 | 39311 ft | 464 kts | 244° |
| 2026-04-30 13:20 | 48.94789 | -55.56772 | 39312 ft | 464 kts | 244° |
| 2026-04-30 13:21 | 48.91981 | -55.65619 | 39314 ft | 464 kts | 244° |
| 2026-04-30 13:22 | 48.87752 | -55.78880 | 39311 ft | 465 kts | 244° |
| 2026-04-30 13:22 | 48.83524 | -55.92072 | 39312 ft | 465 kts | 244° |
| 2026-04-30 13:23 | 48.79262 | -56.05289 | 39303 ft | 464 kts | 244° |
| 2026-04-30 13:24 | 48.73573 | -56.22841 | 39298 ft | 464 kts | 244° |
| 2026-04-30 13:25 | 48.67851 | -56.40372 | 39292 ft | 464 kts | 243° |
| 2026-04-30 13:26 | 48.60691 | -56.62131 | 39293 ft | 463 kts | 243° |
| 2026-04-30 13:28 | 48.53476 | -56.83877 | 39295 ft | 463 kts | 243° |
| 2026-04-30 13:28 | 48.49129 | -56.96884 | 39293 ft | 462 kts | 243° |
| 2026-04-30 13:29 | 48.43344 | -57.14099 | 39282 ft | 460 kts | 242° |
| 2026-04-30 13:31 | 48.36094 | -57.35498 | 39289 ft | 459 kts | 242° |
| 2026-04-30 13:32 | 48.28823 | -57.56806 | 39275 ft | 458 kts | 242° |
| 2026-04-30 13:33 | 48.22976 | -57.73799 | 39275 ft | 457 kts | 241° |
| 2026-04-30 13:34 | 48.18595 | -57.86466 | 39270 ft | 457 kts | 241° |
| 2026-04-30 13:35 | 48.12706 | -58.03388 | 39270 ft | 458 kts | 241° |
| 2026-04-30 13:36 | 48.06809 | -58.20231 | 39274 ft | 457 kts | 241° |
| 2026-04-30 13:36 | 48.02380 | -58.32808 | 39272 ft | 457 kts | 241° |
| 2026-04-30 13:37 | 47.97920 | -58.45411 | 39263 ft | 457 kts | 240° |
| 2026-04-30 13:38 | 47.93469 | -58.57923 | 39261 ft | 456 kts | 240° |
| 2026-04-30 13:39 | 47.87496 | -58.74627 | 39264 ft | 456 kts | 240° |
| 2026-04-30 13:40 | 47.83014 | -58.87099 | 39266 ft | 455 kts | 240° |
| 2026-04-30 13:40 | 47.80034 | -58.95350 | 39260 ft | 454 kts | 239° |
| 2026-04-30 13:41 | 47.77033 | -59.03639 | 39254 ft | 453 kts | 239° |
| 2026-04-30 13:41 | 47.74055 | -59.11839 | 39260 ft | 453 kts | 239° |
| 2026-04-30 13:42 | 47.71055 | -59.20073 | 39259 ft | 452 kts | 239° |
| 2026-04-30 13:42 | 47.66542 | -59.32413 | 39260 ft | 452 kts | 239° |
| 2026-04-30 13:43 | 47.63558 | -59.40538 | 39254 ft | 451 kts | 239° |
| 2026-04-30 13:43 | 47.60552 | -59.48701 | 39249 ft | 450 kts | 238° |
| 2026-04-30 13:44 | 47.57545 | -59.56842 | 39246 ft | 450 kts | 238° |
| 2026-04-30 13:44 | 47.54549 | -59.64921 | 39248 ft | 450 kts | 238° |
| 2026-04-30 13:45 | 47.50020 | -59.77099 | 39248 ft | 449 kts | 238° |
| 2026-04-30 13:46 | 47.46995 | -59.85199 | 39248 ft | 449 kts | 238° |
| 2026-04-30 13:46 | 47.43983 | -59.93236 | 39243 ft | 449 kts | 238° |
| 2026-04-30 13:47 | 47.40949 | -60.01310 | 39231 ft | 449 kts | 238° |
| 2026-04-30 13:47 | 47.37907 | -60.09384 | 39208 ft | 449 kts | 238° |
| 2026-04-30 13:48 | 47.34876 | -60.17400 | 39213 ft | 449 kts | 238° |
| 2026-04-30 13:48 | 47.31828 | -60.25442 | 39214 ft | 449 kts | 238° |
| 2026-04-30 13:49 | 47.28777 | -60.33468 | 39211 ft | 449 kts | 238° |
| 2026-04-30 13:49 | 47.25717 | -60.41495 | 39207 ft | 449 kts | 238° |
| 2026-04-30 13:50 | 47.22665 | -60.49472 | 39204 ft | 449 kts | 238° |
| 2026-04-30 13:50 | 47.18052 | -60.61483 | 39201 ft | 449 kts | 237° |
| 2026-04-30 13:51 | 47.14985 | -60.69440 | 39206 ft | 450 kts | 237° |
| 2026-04-30 13:51 | 47.11890 | -60.77445 | 39207 ft | 450 kts | 237° |
| 2026-04-30 13:52 | 47.08788 | -60.85443 | 39207 ft | 450 kts | 237° |
| 2026-04-30 13:52 | 47.05699 | -60.93391 | 39207 ft | 450 kts | 237° |
| 2026-04-30 13:53 | 47.02589 | -61.01372 | 39204 ft | 450 kts | 237° |
| 2026-04-30 13:53 | 47.00003 | -61.07992 | 39204 ft | 450 kts | 237° |
| 2026-04-30 13:54 | 46.96352 | -61.17301 | 39199 ft | 450 kts | 237° |
| 2026-04-30 13:54 | 46.93226 | -61.25244 | 39198 ft | 450 kts | 237° |
| 2026-04-30 13:55 | 46.90108 | -61.33145 | 39194 ft | 450 kts | 237° |
| 2026-04-30 13:55 | 46.86966 | -61.41082 | 39190 ft | 451 kts | 237° |
| 2026-04-30 13:56 | 46.83818 | -61.49016 | 39183 ft | 451 kts | 237° |
| 2026-04-30 13:56 | 46.80687 | -61.56889 | 39196 ft | 451 kts | 237° |
| 2026-04-30 13:57 | 46.77528 | -61.64801 | 39182 ft | 451 kts | 237° |
| 2026-04-30 13:57 | 46.74361 | -61.72709 | 39199 ft | 451 kts | 237° |
| 2026-04-30 13:58 | 46.69598 | -61.84566 | 39174 ft | 451 kts | 237° |
| 2026-04-30 13:59 | 46.66439 | -61.92404 | 39174 ft | 451 kts | 237° |
| 2026-04-30 13:59 | 46.63253 | -62.00282 | 39169 ft | 451 kts | 237° |
| 2026-04-30 14:00 | 46.60598 | -62.06834 | 39165 ft | 451 kts | 237° |
| 2026-04-30 14:00 | 46.55801 | -62.18626 | 39165 ft | 451 kts | 237° |
| 2026-04-30 14:01 | 46.52616 | -62.26421 | 39154 ft | 451 kts | 237° |
| 2026-04-30 14:01 | 46.49401 | -62.34274 | 39157 ft | 452 kts | 237° |
| 2026-04-30 14:02 | 46.46175 | -62.42131 | 39152 ft | 452 kts | 237° |
| 2026-04-30 14:02 | 46.42950 | -62.49962 | 39143 ft | 452 kts | 237° |
| 2026-04-30 14:03 | 46.39738 | -62.57738 | 39148 ft | 451 kts | 237° |
| 2026-04-30 14:03 | 46.36508 | -62.65543 | 39150 ft | 452 kts | 237° |
| 2026-04-30 14:04 | 46.33264 | -62.73360 | 39143 ft | 452 kts | 237° |
| 2026-04-30 14:04 | 46.30034 | -62.81114 | 39137 ft | 452 kts | 237° |
| 2026-04-30 14:05 | 46.26771 | -62.88924 | 39136 ft | 453 kts | 237° |
| 2026-04-30 14:05 | 46.23503 | -62.96736 | 39141 ft | 455 kts | 237° |
| 2026-04-30 14:06 | 46.18608 | -63.08392 | 39132 ft | 454 kts | 237° |
| 2026-04-30 14:07 | 46.13667 | -63.20084 | 38874 ft | 460 kts | 237° |
| 2026-04-30 14:07 | 46.11991 | -63.24039 | 38620 ft | 463 kts | 237° |
| 2026-04-30 14:08 | 46.08629 | -63.31968 | 38178 ft | 463 kts | 237° |
| 2026-04-30 14:08 | 46.03592 | -63.43798 | 38128 ft | 463 kts | 237° |
| 2026-04-30 14:09 | 46.00210 | -63.51715 | 38129 ft | 463 kts | 237° |
| 2026-04-30 14:10 | 45.95154 | -63.63517 | 38119 ft | 463 kts | 237° |
| 2026-04-30 14:10 | 45.91762 | -63.71407 | 38113 ft | 463 kts | 237° |
| 2026-04-30 14:11 | 45.88365 | -63.79283 | 38110 ft | 464 kts | 237° |
| 2026-04-30 14:11 | 45.84957 | -63.87159 | 38099 ft | 464 kts | 237° |
| 2026-04-30 14:12 | 45.81562 | -63.94982 | 38100 ft | 464 kts | 237° |
| 2026-04-30 14:12 | 45.78143 | -64.02840 | 38100 ft | 464 kts | 237° |
| 2026-04-30 14:13 | 45.74716 | -64.10703 | 38091 ft | 464 kts | 237° |
| 2026-04-30 14:13 | 45.71290 | -64.18538 | 38086 ft | 464 kts | 237° |
| 2026-04-30 14:14 | 45.67879 | -64.26311 | 38093 ft | 464 kts | 237° |
| 2026-04-30 14:14 | 45.64444 | -64.34119 | 38091 ft | 463 kts | 237° |
| 2026-04-30 14:15 | 45.61001 | -64.41921 | 38091 ft | 463 kts | 237° |
| 2026-04-30 14:15 | 45.57559 | -64.49705 | 38090 ft | 463 kts | 237° |
| 2026-04-30 14:16 | 45.54138 | -64.57414 | 38081 ft | 462 kts | 237° |
| 2026-04-30 14:16 | 45.50694 | -64.65153 | 38081 ft | 461 kts | 237° |
| 2026-04-30 14:17 | 45.47251 | -64.72874 | 38073 ft | 461 kts | 237° |
| 2026-04-30 14:17 | 45.43825 | -64.80537 | 38073 ft | 461 kts | 237° |
| 2026-04-30 14:18 | 45.40375 | -64.88233 | 38073 ft | 461 kts | 237° |
| 2026-04-30 14:18 | 45.35194 | -64.99748 | 38064 ft | 460 kts | 237° |
| 2026-04-30 14:19 | 45.30001 | -65.11240 | 38063 ft | 459 kts | 237° |
| 2026-04-30 14:20 | 45.26538 | -65.18877 | 38063 ft | 459 kts | 237° |
| 2026-04-30 14:20 | 45.21366 | -65.30250 | 38055 ft | 459 kts | 237° |
| 2026-04-30 14:21 | 45.17899 | -65.37849 | 38054 ft | 459 kts | 237° |
| 2026-04-30 14:22 | 45.12677 | -65.49256 | 38054 ft | 459 kts | 237° |
| 2026-04-30 14:22 | 45.07477 | -65.60574 | 38045 ft | 458 kts | 237° |
| 2026-04-30 14:23 | 45.00516 | -65.75641 | 38045 ft | 457 kts | 237° |
| 2026-04-30 14:24 | 44.95306 | -65.86869 | 38045 ft | 457 kts | 237° |
| 2026-04-30 14:25 | 44.88315 | -66.01867 | 38036 ft | 456 kts | 237° |
| 2026-04-30 14:26 | 44.83100 | -66.13007 | 38033 ft | 455 kts | 237° |
| 2026-04-30 14:27 | 44.77862 | -66.24149 | 38017 ft | 454 kts | 237° |
| 2026-04-30 14:27 | 44.74390 | -66.31513 | 38017 ft | 453 kts | 237° |
| 2026-04-30 14:28 | 44.69143 | -66.42602 | 38016 ft | 453 kts | 236° |
| 2026-04-30 14:28 | 44.65643 | -66.49982 | 38008 ft | 453 kts | 237° |
| 2026-04-30 14:29 | 44.59248 | -66.63406 | 37999 ft | 452 kts | 236° |
| 2026-04-30 14:31 | 44.49882 | -66.82955 | 37990 ft | 452 kts | 236° |
| 2026-04-30 14:31 | 44.44628 | -66.93863 | 37984 ft | 452 kts | 236° |
| 2026-04-30 14:32 | 44.41537 | -67.01517 | 37980 ft | 452 kts | 248° |
| 2026-04-30 14:32 | 44.40495 | -67.05659 | 37979 ft | 452 kts | 251° |
| 2026-04-30 14:33 | 44.38677 | -67.14033 | 37976 ft | 452 kts | 253° |
| 2026-04-30 14:33 | 44.36076 | -67.26718 | 37968 ft | 452 kts | 252° |
| 2026-04-30 14:34 | 44.34321 | -67.35151 | 37962 ft | 452 kts | 252° |
| 2026-04-30 14:34 | 44.32541 | -67.43586 | 37965 ft | 452 kts | 252° |
| 2026-04-30 14:35 | 44.29873 | -67.56138 | 37948 ft | 451 kts | 252° |
| 2026-04-30 14:36 | 44.28079 | -67.64549 | 37951 ft | 451 kts | 252° |
| 2026-04-30 14:36 | 44.26280 | -67.72950 | 37947 ft | 451 kts | 252° |
| 2026-04-30 14:37 | 44.24489 | -67.81285 | 37961 ft | 451 kts | 252° |
| 2026-04-30 14:37 | 44.22682 | -67.89648 | 37942 ft | 450 kts | 251° |
| 2026-04-30 14:38 | 44.20867 | -67.98010 | 37943 ft | 450 kts | 251° |
| 2026-04-30 14:38 | 44.19061 | -68.06313 | 37940 ft | 450 kts | 251° |
| 2026-04-30 14:39 | 44.17238 | -68.14656 | 37939 ft | 450 kts | 251° |
| 2026-04-30 14:39 | 44.15405 | -68.22997 | 37939 ft | 450 kts | 251° |
| 2026-04-30 14:40 | 44.12654 | -68.35472 | 37945 ft | 451 kts | 251° |
| 2026-04-30 14:40 | 44.10807 | -68.43810 | 37937 ft | 450 kts | 251° |
| 2026-04-30 14:41 | 44.08953 | -68.52146 | 37937 ft | 451 kts | 251° |
| 2026-04-30 14:41 | 44.07091 | -68.60487 | 37935 ft | 451 kts | 251° |
| 2026-04-30 14:42 | 44.05232 | -68.68772 | 37931 ft | 452 kts | 251° |
| 2026-04-30 14:42 | 44.03356 | -68.77108 | 37927 ft | 452 kts | 251° |
| 2026-04-30 14:43 | 44.01471 | -68.85461 | 37920 ft | 453 kts | 250° |
| 2026-04-30 14:43 | 43.99576 | -68.93818 | 37926 ft | 453 kts | 250° |
| 2026-04-30 14:44 | 43.97674 | -69.02173 | 37921 ft | 453 kts | 250° |
| 2026-04-30 14:44 | 43.95780 | -69.10457 | 37922 ft | 453 kts | 250° |
| 2026-04-30 14:45 | 43.93863 | -69.18816 | 37921 ft | 454 kts | 250° |
| 2026-04-30 14:45 | 43.91936 | -69.27193 | 37922 ft | 455 kts | 250° |
| 2026-04-30 14:46 | 43.90013 | -69.35506 | 37915 ft | 455 kts | 250° |
| 2026-04-30 14:46 | 43.88398 | -69.42461 | 37916 ft | 455 kts | 250° |
| 2026-04-30 14:47 | 43.86131 | -69.52200 | 37907 ft | 456 kts | 250° |
| 2026-04-30 14:47 | 43.84174 | -69.60573 | 37906 ft | 456 kts | 249° |
| 2026-04-30 14:48 | 43.82207 | -69.68959 | 37906 ft | 457 kts | 249° |
| 2026-04-30 14:48 | 43.80247 | -69.77279 | 37907 ft | 457 kts | 249° |
| 2026-04-30 14:49 | 43.78265 | -69.85661 | 37907 ft | 458 kts | 249° |
| 2026-04-30 14:49 | 43.76276 | -69.94041 | 37905 ft | 458 kts | 249° |
| 2026-04-30 14:50 | 43.73618 | -70.05189 | 37894 ft | 458 kts | 249° |
| 2026-04-30 14:51 | 43.70627 | -70.17677 | 37886 ft | 457 kts | 249° |
| 2026-04-30 14:52 | 43.67608 | -70.30197 | 37881 ft | 457 kts | 249° |
| 2026-04-30 14:52 | 43.64592 | -70.42652 | 37878 ft | 457 kts | 249° |
| 2026-04-30 14:53 | 43.61550 | -70.55139 | 37865 ft | 456 kts | 249° |
| 2026-04-30 14:54 | 43.57495 | -70.71677 | 37865 ft | 455 kts | 249° |
| 2026-04-30 14:55 | 43.55219 | -70.79801 | 37649 ft | 452 kts | 240° |
| 2026-04-30 14:55 | 43.53585 | -70.83496 | 37404 ft | 450 kts | 232° |
| 2026-04-30 14:55 | 43.49216 | -70.89574 | 36892 ft | 446 kts | 215° |
| 2026-04-30 14:56 | 43.43975 | -70.94023 | 36415 ft | 444 kts | 210° |
| 2026-04-30 14:56 | 43.38562 | -70.98174 | 35914 ft | 446 kts | 208° |
| 2026-04-30 14:57 | 43.35836 | -71.00251 | 35666 ft | 448 kts | 209° |
| 2026-04-30 14:57 | 43.30396 | -71.04429 | 35164 ft | 446 kts | 209° |
| 2026-04-30 14:58 | 43.25053 | -71.08564 | 34671 ft | 440 kts | 209° |
| 2026-04-30 14:58 | 43.22393 | -71.10628 | 34416 ft | 437 kts | 209° |
| 2026-04-30 14:58 | 43.17125 | -71.14708 | 33917 ft | 432 kts | 209° |
| 2026-04-30 14:59 | 43.11913 | -71.18736 | 33419 ft | 427 kts | 209° |
| 2026-04-30 15:00 | 43.04824 | -71.25884 | 32665 ft | 425 kts | 226° |
| 2026-04-30 15:00 | 43.00982 | -71.32019 | 32168 ft | 423 kts | 229° |
| 2026-04-30 15:01 | 42.97306 | -71.38263 | 31654 ft | 420 kts | 229° |
| 2026-04-30 15:01 | 42.95482 | -71.41375 | 31413 ft | 418 kts | 229° |
| 2026-04-30 15:01 | 42.91869 | -71.47487 | 30913 ft | 414 kts | 229° |
| 2026-04-30 15:02 | 42.90056 | -71.50533 | 30668 ft | 412 kts | 229° |
| 2026-04-30 15:02 | 42.88251 | -71.53555 | 30418 ft | 410 kts | 229° |
| 2026-04-30 15:03 | 42.82868 | -71.62539 | 29667 ft | 405 kts | 229° |
| 2026-04-30 15:03 | 42.79312 | -71.68457 | 29164 ft | 401 kts | 229° |
| 2026-04-30 15:04 | 42.75794 | -71.74303 | 28666 ft | 395 kts | 229° |
| 2026-04-30 15:04 | 42.70613 | -71.82888 | 27926 ft | 390 kts | 229° |
| 2026-04-30 15:05 | 42.65475 | -71.91382 | 27167 ft | 385 kts | 229° |
| 2026-04-30 15:06 | 42.62075 | -71.96988 | 26659 ft | 382 kts | 229° |
| 2026-04-30 15:06 | 42.58722 | -72.02504 | 26163 ft | 379 kts | 229° |
| 2026-04-30 15:07 | 42.55385 | -72.07985 | 25664 ft | 374 kts | 229° |
| 2026-04-30 15:07 | 42.52097 | -72.13377 | 25165 ft | 371 kts | 229° |
| 2026-04-30 15:08 | 42.48818 | -72.18747 | 24664 ft | 368 kts | 229° |
| 2026-04-30 15:08 | 42.43940 | -72.26711 | 23913 ft | 364 kts | 229° |
| 2026-04-30 15:09 | 42.40717 | -72.31962 | 23411 ft | 361 kts | 229° |
| 2026-04-30 15:09 | 42.37507 | -72.37178 | 22893 ft | 359 kts | 230° |
| 2026-04-30 15:10 | 42.34318 | -72.42354 | 22417 ft | 357 kts | 229° |
| 2026-04-30 15:11 | 42.28007 | -72.52558 | 21415 ft | 352 kts | 229° |
| 2026-04-30 15:11 | 42.24863 | -72.57646 | 20908 ft | 351 kts | 229° |
| 2026-04-30 15:12 | 42.20142 | -72.65058 | 20157 ft | 347 kts | 226° |
| 2026-04-30 15:13 | 42.16982 | -72.69963 | 19653 ft | 345 kts | 227° |
| 2026-04-30 15:14 | 42.11388 | -72.80320 | 18658 ft | 341 kts | 232° |
| 2026-04-30 15:14 | 42.06869 | -72.88986 | 18480 ft | 398 kts | 232° |
| 2026-04-30 15:16 | 41.98873 | -73.04110 | 17892 ft | 396 kts | 233° |
| 2026-04-30 15:17 | 41.92503 | -73.16056 | 17917 ft | 393 kts | 233° |
| 2026-04-30 15:18 | 41.84526 | -73.30943 | 17926 ft | 393 kts | 233° |
| 2026-04-30 15:19 | 41.79746 | -73.39825 | 17937 ft | 393 kts | 233° |